sensor_id;sensor_type;location;lat;lon;timestamp;temperature;humidity
15630;DHT22;7914;50.842;0.166;2022-07-29T00:02:25;14.60;99.90
15630;DHT22;7914;50.842;0.166;2022-07-29T00:04:51;14.60;99.90
15630;DHT22;7914;50.842;0.166;2022-07-29T00:07:17;14.60;99.90
15630;DHT22;7914;50.842;0.166;2022-07-29T00:09:43;14.60;99.90
15630;DHT22;7914;50.842;0.166;2022-07-29T00:12:08;14.50;99.90
15630;DHT22;7914;50.842;0.166;2022-07-29T00:14:34;14.60;99.90
15630;DHT22;7914;50.842;0.166;2022-07-29T00:17:00;14.70;99.90
15630;DHT22;7914;50.842;0.166;2022-07-29T00:19:26;14.70;99.90
15630;DHT22;7914;50.842;0.166;2022-07-29T00:21:51;14.60;99.90
15630;DHT22;7914;50.842;0.166;2022-07-29T00:24:17;14.50;99.90
15630;DHT22;7914;50.842;0.166;2022-07-29T00:26:43;14.50;99.90
15630;DHT22;7914;50.842;0.166;2022-07-29T00:29:09;14.40;99.90
15630;DHT22;7914;50.842;0.166;2022-07-29T00:31:34;14.40;99.90
15630;DHT22;7914;50.842;0.166;2022-07-29T00:34:00;14.30;99.90
15630;DHT22;7914;50.842;0.166;2022-07-29T00:36:26;14.30;99.90
15630;DHT22;7914;50.842;0.166;2022-07-29T00:38:52;14.30;99.90
15630;DHT22;7914;50.842;0.166;2022-07-29T00:41:18;14.30;99.90
15630;DHT22;7914;50.842;0.166;2022-07-29T00:43:44;14.20;99.90
15630;DHT22;7914;50.842;0.166;2022-07-29T00:46:11;14.20;99.90
15630;DHT22;7914;50.842;0.166;2022-07-29T00:48:37;14.10;99.90
15630;DHT22;7914;50.842;0.166;2022-07-29T00:51:04;14.10;99.90
15630;DHT22;7914;50.842;0.166;2022-07-29T00:53:31;14.00;99.90
15630;DHT22;7914;50.842;0.166;2022-07-29T00:55:58;14.10;99.90
15630;DHT22;7914;50.842;0.166;2022-07-29T00:58:24;14.10;99.90
15630;DHT22;7914;50.842;0.166;2022-07-29T01:00:52;14.10;99.90
15630;DHT22;7914;50.842;0.166;2022-07-29T01:03:19;14.10;99.90
15630;DHT22;7914;50.842;0.166;2022-07-29T01:05:45;14.10;99.90
15630;DHT22;7914;50.842;0.166;2022-07-29T01:08:13;14.10;99.90
15630;DHT22;7914;50.842;0.166;2022-07-29T01:10:40;14.00;99.90
15630;DHT22;7914;50.842;0.166;2022-07-29T01:13:07;14.00;99.90
15630;DHT22;7914;50.842;0.166;2022-07-29T01:15:38;14.00;99.90
15630;DHT22;7914;50.842;0.166;2022-07-29T01:18:14;13.90;99.90
15630;DHT22;7914;50.842;0.166;2022-07-29T01:31:47;13.90;99.90
15630;DHT22;7914;50.842;0.166;2022-07-29T01:34:41;14.00;99.90
15630;DHT22;7914;50.842;0.166;2022-07-29T01:37:19;13.90;99.90
15630;DHT22;7914;50.842;0.166;2022-07-29T01:39:49;14.00;99.90
15630;DHT22;7914;50.842;0.166;2022-07-29T01:42:37;13.90;99.90
15630;DHT22;7914;50.842;0.166;2022-07-29T01:48:18;13.90;99.90
15630;DHT22;7914;50.842;0.166;2022-07-29T01:51:01;13.90;99.90
15630;DHT22;7914;50.842;0.166;2022-07-29T01:53:36;13.90;99.90
15630;DHT22;7914;50.842;0.166;2022-07-29T01:56:03;13.90;99.90
15630;DHT22;7914;50.842;0.166;2022-07-29T01:58:31;13.90;99.90
15630;DHT22;7914;50.842;0.166;2022-07-29T02:00:58;13.90;99.90
15630;DHT22;7914;50.842;0.166;2022-07-29T02:03:25;13.90;99.90
15630;DHT22;7914;50.842;0.166;2022-07-29T02:05:53;13.90;99.90
15630;DHT22;7914;50.842;0.166;2022-07-29T02:08:21;13.90;99.90
15630;DHT22;7914;50.842;0.166;2022-07-29T02:10:48;13.80;99.90
15630;DHT22;7914;50.842;0.166;2022-07-29T02:13:17;13.80;99.90
15630;DHT22;7914;50.842;0.166;2022-07-29T02:15:44;13.80;99.90
15630;DHT22;7914;50.842;0.166;2022-07-29T02:18:15;13.80;99.90
15630;DHT22;7914;50.842;0.166;2022-07-29T02:20:45;13.80;99.90
15630;DHT22;7914;50.842;0.166;2022-07-29T02:23:12;13.80;99.90
15630;DHT22;7914;50.842;0.166;2022-07-29T02:25:41;13.80;99.90
15630;DHT22;7914;50.842;0.166;2022-07-29T02:28:08;13.80;99.90
15630;DHT22;7914;50.842;0.166;2022-07-29T02:30:37;13.70;99.90
15630;DHT22;7914;50.842;0.166;2022-07-29T02:33:05;13.70;99.90
15630;DHT22;7914;50.842;0.166;2022-07-29T02:35:32;13.70;99.90
15630;DHT22;7914;50.842;0.166;2022-07-29T02:37:58;13.70;99.90
15630;DHT22;7914;50.842;0.166;2022-07-29T02:40:43;13.70;99.90
15630;DHT22;7914;50.842;0.166;2022-07-29T02:43:10;13.70;99.90
15630;DHT22;7914;50.842;0.166;2022-07-29T02:45:36;13.70;99.90
15630;DHT22;7914;50.842;0.166;2022-07-29T02:48:08;13.70;99.90
15630;DHT22;7914;50.842;0.166;2022-07-29T02:50:39;13.60;99.90
15630;DHT22;7914;50.842;0.166;2022-07-29T02:53:17;13.50;99.90
15630;DHT22;7914;50.842;0.166;2022-07-29T02:55:48;13.50;99.90
15630;DHT22;7914;50.842;0.166;2022-07-29T02:58:46;13.50;99.90
15630;DHT22;7914;50.842;0.166;2022-07-29T03:01:16;13.50;99.90
15630;DHT22;7914;50.842;0.166;2022-07-29T03:03:44;13.50;99.90
15630;DHT22;7914;50.842;0.166;2022-07-29T03:06:13;13.50;99.90
15630;DHT22;7914;50.842;0.166;2022-07-29T03:08:40;13.50;99.90
15630;DHT22;7914;50.842;0.166;2022-07-29T03:11:07;13.50;99.90
15630;DHT22;7914;50.842;0.166;2022-07-29T03:13:35;13.50;99.90
15630;DHT22;7914;50.842;0.166;2022-07-29T03:16:02;13.50;99.90
15630;DHT22;7914;50.842;0.166;2022-07-29T03:18:28;13.50;99.90
15630;DHT22;7914;50.842;0.166;2022-07-29T03:20:54;13.40;99.90
15630;DHT22;7914;50.842;0.166;2022-07-29T03:23:21;13.40;99.90
15630;DHT22;7914;50.842;0.166;2022-07-29T03:25:52;13.40;99.90
15630;DHT22;7914;50.842;0.166;2022-07-29T03:28:19;13.40;99.90
15630;DHT22;7914;50.842;0.166;2022-07-29T03:30:45;13.40;99.90
15630;DHT22;7914;50.842;0.166;2022-07-29T03:33:11;13.40;99.90
15630;DHT22;7914;50.842;0.166;2022-07-29T03:35:36;13.40;99.90
15630;DHT22;7914;50.842;0.166;2022-07-29T03:38:02;13.40;99.90
15630;DHT22;7914;50.842;0.166;2022-07-29T03:40:35;13.40;99.90
15630;DHT22;7914;50.842;0.166;2022-07-29T03:43:02;13.40;99.90
15630;DHT22;7914;50.842;0.166;2022-07-29T03:45:30;13.30;99.90
15630;DHT22;7914;50.842;0.166;2022-07-29T03:48:10;13.40;99.90
15630;DHT22;7914;50.842;0.166;2022-07-29T03:50:37;13.40;99.90
15630;DHT22;7914;50.842;0.166;2022-07-29T03:53:03;13.40;99.90
15630;DHT22;7914;50.842;0.166;2022-07-29T03:55:33;13.40;99.90
15630;DHT22;7914;50.842;0.166;2022-07-29T03:58:02;13.40;99.90
15630;DHT22;7914;50.842;0.166;2022-07-29T04:00:28;13.40;99.90
15630;DHT22;7914;50.842;0.166;2022-07-29T04:02:56;13.40;99.90
15630;DHT22;7914;50.842;0.166;2022-07-29T04:05:21;13.40;99.90
15630;DHT22;7914;50.842;0.166;2022-07-29T04:07:48;13.40;99.90
15630;DHT22;7914;50.842;0.166;2022-07-29T04:10:15;13.30;99.90
15630;DHT22;7914;50.842;0.166;2022-07-29T04:12:42;13.30;99.90
15630;DHT22;7914;50.842;0.166;2022-07-29T04:15:08;13.40;99.90
15630;DHT22;7914;50.842;0.166;2022-07-29T04:17:34;13.40;99.90
15630;DHT22;7914;50.842;0.166;2022-07-29T04:20:00;13.40;99.90
15630;DHT22;7914;50.842;0.166;2022-07-29T04:22:26;13.40;99.90
15630;DHT22;7914;50.842;0.166;2022-07-29T04:24:52;13.40;99.90
15630;DHT22;7914;50.842;0.166;2022-07-29T04:27:17;13.40;99.90
15630;DHT22;7914;50.842;0.166;2022-07-29T04:29:43;13.40;99.90
15630;DHT22;7914;50.842;0.166;2022-07-29T04:32:09;13.50;99.90
15630;DHT22;7914;50.842;0.166;2022-07-29T04:34:34;13.50;99.90
15630;DHT22;7914;50.842;0.166;2022-07-29T04:37:00;13.50;99.90
15630;DHT22;7914;50.842;0.166;2022-07-29T04:39:26;13.60;99.90
15630;DHT22;7914;50.842;0.166;2022-07-29T04:41:52;13.60;99.90
15630;DHT22;7914;50.842;0.166;2022-07-29T04:44:18;13.70;99.90
15630;DHT22;7914;50.842;0.166;2022-07-29T04:46:44;13.70;99.90
15630;DHT22;7914;50.842;0.166;2022-07-29T04:49:09;13.80;99.90
15630;DHT22;7914;50.842;0.166;2022-07-29T04:51:35;13.90;99.90
15630;DHT22;7914;50.842;0.166;2022-07-29T04:54:01;14.00;99.90
15630;DHT22;7914;50.842;0.166;2022-07-29T04:56:27;14.10;99.90
15630;DHT22;7914;50.842;0.166;2022-07-29T04:58:53;14.30;99.90
15630;DHT22;7914;50.842;0.166;2022-07-29T05:01:19;14.40;99.90
15630;DHT22;7914;50.842;0.166;2022-07-29T05:03:45;14.60;99.90
15630;DHT22;7914;50.842;0.166;2022-07-29T05:06:11;14.80;99.90
15630;DHT22;7914;50.842;0.166;2022-07-29T05:08:37;14.90;99.90
15630;DHT22;7914;50.842;0.166;2022-07-29T05:11:03;15.10;99.90
15630;DHT22;7914;50.842;0.166;2022-07-29T05:13:29;15.10;99.90
15630;DHT22;7914;50.842;0.166;2022-07-29T05:15:54;15.20;99.90
15630;DHT22;7914;50.842;0.166;2022-07-29T05:18:20;15.20;99.90
15630;DHT22;7914;50.842;0.166;2022-07-29T05:20:46;15.20;99.90
15630;DHT22;7914;50.842;0.166;2022-07-29T05:23:12;15.40;99.90
15630;DHT22;7914;50.842;0.166;2022-07-29T05:25:38;15.40;99.90
15630;DHT22;7914;50.842;0.166;2022-07-29T05:28:04;15.50;99.90
15630;DHT22;7914;50.842;0.166;2022-07-29T05:30:29;15.50;99.90
15630;DHT22;7914;50.842;0.166;2022-07-29T05:32:55;15.70;99.90
15630;DHT22;7914;50.842;0.166;2022-07-29T05:35:21;15.80;99.90
15630;DHT22;7914;50.842;0.166;2022-07-29T05:37:47;16.00;99.90
15630;DHT22;7914;50.842;0.166;2022-07-29T05:40:12;15.90;99.90
15630;DHT22;7914;50.842;0.166;2022-07-29T05:42:38;16.00;99.90
15630;DHT22;7914;50.842;0.166;2022-07-29T05:45:04;16.00;99.90
15630;DHT22;7914;50.842;0.166;2022-07-29T05:47:30;16.00;99.90
15630;DHT22;7914;50.842;0.166;2022-07-29T05:49:56;16.00;99.90
15630;DHT22;7914;50.842;0.166;2022-07-29T05:52:22;15.90;99.90
15630;DHT22;7914;50.842;0.166;2022-07-29T05:54:48;15.90;99.90
15630;DHT22;7914;50.842;0.166;2022-07-29T05:57:21;15.90;99.90
15630;DHT22;7914;50.842;0.166;2022-07-29T05:59:48;15.90;99.90
15630;DHT22;7914;50.842;0.166;2022-07-29T06:02:14;15.90;99.90
15630;DHT22;7914;50.842;0.166;2022-07-29T06:04:40;16.00;99.90
15630;DHT22;7914;50.842;0.166;2022-07-29T06:07:06;16.10;99.90
15630;DHT22;7914;50.842;0.166;2022-07-29T06:09:33;16.10;99.90
15630;DHT22;7914;50.842;0.166;2022-07-29T06:11:59;16.20;99.90
15630;DHT22;7914;50.842;0.166;2022-07-29T06:14:25;16.30;99.90
15630;DHT22;7914;50.842;0.166;2022-07-29T06:16:52;16.40;99.90
15630;DHT22;7914;50.842;0.166;2022-07-29T06:19:18;16.50;99.90
15630;DHT22;7914;50.842;0.166;2022-07-29T06:21:45;16.50;99.90
15630;DHT22;7914;50.842;0.166;2022-07-29T06:24:11;16.60;99.90
15630;DHT22;7914;50.842;0.166;2022-07-29T06:26:38;16.70;99.90
15630;DHT22;7914;50.842;0.166;2022-07-29T06:29:05;16.90;99.90
15630;DHT22;7914;50.842;0.166;2022-07-29T06:31:30;17.10;99.90
15630;DHT22;7914;50.842;0.166;2022-07-29T06:33:56;17.20;99.90
15630;DHT22;7914;50.842;0.166;2022-07-29T06:36:22;17.30;99.90
15630;DHT22;7914;50.842;0.166;2022-07-29T06:38:47;17.30;99.90
15630;DHT22;7914;50.842;0.166;2022-07-29T06:41:13;17.40;99.90
15630;DHT22;7914;50.842;0.166;2022-07-29T06:43:43;17.50;99.90
15630;DHT22;7914;50.842;0.166;2022-07-29T06:46:11;17.70;99.90
15630;DHT22;7914;50.842;0.166;2022-07-29T06:48:38;17.80;99.90
15630;DHT22;7914;50.842;0.166;2022-07-29T06:51:05;18.00;99.90
15630;DHT22;7914;50.842;0.166;2022-07-29T06:53:32;18.10;99.90
15630;DHT22;7914;50.842;0.166;2022-07-29T06:56:02;18.10;99.90
15630;DHT22;7914;50.842;0.166;2022-07-29T06:58:29;18.10;99.90
15630;DHT22;7914;50.842;0.166;2022-07-29T07:01:00;18.30;99.90
15630;DHT22;7914;50.842;0.166;2022-07-29T07:03:26;18.50;99.90
15630;DHT22;7914;50.842;0.166;2022-07-29T07:05:53;18.90;99.90
15630;DHT22;7914;50.842;0.166;2022-07-29T07:08:19;19.10;99.90
15630;DHT22;7914;50.842;0.166;2022-07-29T07:10:46;19.30;99.90
15630;DHT22;7914;50.842;0.166;2022-07-29T07:13:12;19.40;99.90
15630;DHT22;7914;50.842;0.166;2022-07-29T07:15:38;19.70;99.90
15630;DHT22;7914;50.842;0.166;2022-07-29T07:18:04;19.80;99.90
15630;DHT22;7914;50.842;0.166;2022-07-29T07:20:32;19.90;99.90
15630;DHT22;7914;50.842;0.166;2022-07-29T07:22:58;20.20;99.90
15630;DHT22;7914;50.842;0.166;2022-07-29T07:25:23;20.60;99.90
15630;DHT22;7914;50.842;0.166;2022-07-29T07:27:49;21.10;99.90
15630;DHT22;7914;50.842;0.166;2022-07-29T07:30:15;21.10;99.90
15630;DHT22;7914;50.842;0.166;2022-07-29T07:32:41;21.20;99.90
15630;DHT22;7914;50.842;0.166;2022-07-29T07:35:07;21.20;99.90
15630;DHT22;7914;50.842;0.166;2022-07-29T07:37:34;21.10;99.90
15630;DHT22;7914;50.842;0.166;2022-07-29T07:40:00;21.20;99.90
15630;DHT22;7914;50.842;0.166;2022-07-29T07:42:26;21.20;99.90
15630;DHT22;7914;50.842;0.166;2022-07-29T07:44:52;21.30;99.90
15630;DHT22;7914;50.842;0.166;2022-07-29T07:47:18;21.60;99.90
15630;DHT22;7914;50.842;0.166;2022-07-29T07:49:51;21.80;99.90
15630;DHT22;7914;50.842;0.166;2022-07-29T07:52:18;22.20;92.30
15630;DHT22;7914;50.842;0.166;2022-07-29T07:54:45;22.20;59.30
15630;DHT22;7914;50.842;0.166;2022-07-29T07:57:11;21.90;72.40
15630;DHT22;7914;50.842;0.166;2022-07-29T07:59:37;21.90;76.10
15630;DHT22;7914;50.842;0.166;2022-07-29T08:02:03;21.90;95.00
15630;DHT22;7914;50.842;0.166;2022-07-29T08:04:29;22.20;92.20
15630;DHT22;7914;50.842;0.166;2022-07-29T08:06:56;22.30;53.70
15630;DHT22;7914;50.842;0.166;2022-07-29T08:09:23;22.40;57.40
15630;DHT22;7914;50.842;0.166;2022-07-29T08:11:49;22.10;51.70
15630;DHT22;7914;50.842;0.166;2022-07-29T08:14:15;22.00;82.10
15630;DHT22;7914;50.842;0.166;2022-07-29T08:16:41;22.50;50.40
15630;DHT22;7914;50.842;0.166;2022-07-29T08:19:07;22.60;15.00
15630;DHT22;7914;50.842;0.166;2022-07-29T08:21:33;22.60;5.10
15630;DHT22;7914;50.842;0.166;2022-07-29T08:23:59;22.80;1.00
15630;DHT22;7914;50.842;0.166;2022-07-29T08:26:43;22.70;1.00
15630;DHT22;7914;50.842;0.166;2022-07-29T08:29:09;22.80;1.00
15630;DHT22;7914;50.842;0.166;2022-07-29T08:31:36;22.80;1.00
15630;DHT22;7914;50.842;0.166;2022-07-29T08:34:03;23.10;1.00
15630;DHT22;7914;50.842;0.166;2022-07-29T08:36:30;23.00;1.00
15630;DHT22;7914;50.842;0.166;2022-07-29T08:38:56;22.90;1.00
15630;DHT22;7914;50.842;0.166;2022-07-29T08:41:22;22.70;1.00
15630;DHT22;7914;50.842;0.166;2022-07-29T08:43:49;22.90;1.00
15630;DHT22;7914;50.842;0.166;2022-07-29T08:46:15;23.10;1.00
15630;DHT22;7914;50.842;0.166;2022-07-29T08:48:42;23.10;1.00
15630;DHT22;7914;50.842;0.166;2022-07-29T08:51:11;23.40;1.00
15630;DHT22;7914;50.842;0.166;2022-07-29T08:53:41;23.60;1.00
15630;DHT22;7914;50.842;0.166;2022-07-29T08:56:11;23.40;1.00
15630;DHT22;7914;50.842;0.166;2022-07-29T08:58:38;23.30;1.00
15630;DHT22;7914;50.842;0.166;2022-07-29T09:01:04;23.30;1.00
15630;DHT22;7914;50.842;0.166;2022-07-29T09:03:32;23.40;1.00
15630;DHT22;7914;50.842;0.166;2022-07-29T09:05:59;23.40;1.00
15630;DHT22;7914;50.842;0.166;2022-07-29T09:08:25;23.80;1.00
15630;DHT22;7914;50.842;0.166;2022-07-29T09:10:51;23.80;1.00
15630;DHT22;7914;50.842;0.166;2022-07-29T09:13:17;23.70;1.00
15630;DHT22;7914;50.842;0.166;2022-07-29T09:15:44;24.20;1.00
15630;DHT22;7914;50.842;0.166;2022-07-29T09:18:10;24.20;1.00
15630;DHT22;7914;50.842;0.166;2022-07-29T09:20:36;24.20;1.00
15630;DHT22;7914;50.842;0.166;2022-07-29T09:23:20;24.10;1.00
15630;DHT22;7914;50.842;0.166;2022-07-29T09:25:46;24.10;1.00
15630;DHT22;7914;50.842;0.166;2022-07-29T09:28:16;24.30;1.00
15630;DHT22;7914;50.842;0.166;2022-07-29T09:30:56;24.10;1.00
15630;DHT22;7914;50.842;0.166;2022-07-29T09:33:31;24.50;1.00
15630;DHT22;7914;50.842;0.166;2022-07-29T09:36:03;24.70;1.00
15630;DHT22;7914;50.842;0.166;2022-07-29T09:38:29;24.30;1.00
15630;DHT22;7914;50.842;0.166;2022-07-29T09:41:00;24.40;1.00
15630;DHT22;7914;50.842;0.166;2022-07-29T09:43:26;24.50;1.00
15630;DHT22;7914;50.842;0.166;2022-07-29T09:45:52;24.60;1.00
15630;DHT22;7914;50.842;0.166;2022-07-29T09:48:21;24.60;1.00
15630;DHT22;7914;50.842;0.166;2022-07-29T09:50:47;24.80;1.00
15630;DHT22;7914;50.842;0.166;2022-07-29T09:53:35;25.10;1.00
15630;DHT22;7914;50.842;0.166;2022-07-29T09:56:02;24.90;1.00
15630;DHT22;7914;50.842;0.166;2022-07-29T09:58:28;24.90;1.00
15630;DHT22;7914;50.842;0.166;2022-07-29T10:00:55;25.20;1.00
15630;DHT22;7914;50.842;0.166;2022-07-29T10:03:21;25.20;1.00
15630;DHT22;7914;50.842;0.166;2022-07-29T10:06:07;25.20;1.00
15630;DHT22;7914;50.842;0.166;2022-07-29T10:08:34;25.50;1.00
15630;DHT22;7914;50.842;0.166;2022-07-29T10:11:13;25.70;1.00
15630;DHT22;7914;50.842;0.166;2022-07-29T10:13:41;25.90;1.00
15630;DHT22;7914;50.842;0.166;2022-07-29T10:16:07;26.00;1.00
15630;DHT22;7914;50.842;0.166;2022-07-29T10:18:34;26.00;1.00
15630;DHT22;7914;50.842;0.166;2022-07-29T10:21:00;26.10;1.00
15630;DHT22;7914;50.842;0.166;2022-07-29T10:23:30;26.00;1.00
15630;DHT22;7914;50.842;0.166;2022-07-29T10:25:56;26.00;1.00
15630;DHT22;7914;50.842;0.166;2022-07-29T10:28:22;25.70;1.00
15630;DHT22;7914;50.842;0.166;2022-07-29T10:30:50;25.80;1.00
15630;DHT22;7914;50.842;0.166;2022-07-29T10:33:24;26.00;1.00
15630;DHT22;7914;50.842;0.166;2022-07-29T10:43:51;26.00;1.00
15630;DHT22;7914;50.842;0.166;2022-07-29T10:46:17;25.80;1.00
15630;DHT22;7914;50.842;0.166;2022-07-29T10:51:57;26.00;1.00
15630;DHT22;7914;50.842;0.166;2022-07-29T10:54:47;26.20;1.00
15630;DHT22;7914;50.842;0.166;2022-07-29T10:57:17;26.40;1.00
15630;DHT22;7914;50.842;0.166;2022-07-29T10:59:48;26.40;1.00
15630;DHT22;7914;50.842;0.166;2022-07-29T11:05:00;26.50;1.00
15630;DHT22;7914;50.842;0.166;2022-07-29T11:07:27;26.40;1.00
15630;DHT22;7914;50.842;0.166;2022-07-29T11:15:19;26.40;1.00
15630;DHT22;7914;50.842;0.166;2022-07-29T11:20:44;26.90;1.00
15630;DHT22;7914;50.842;0.166;2022-07-29T11:23:20;26.90;1.00
15630;DHT22;7914;50.842;0.166;2022-07-29T11:29:19;27.20;1.00
15630;DHT22;7914;50.842;0.166;2022-07-29T11:31:47;27.30;1.00
15630;DHT22;7914;50.842;0.166;2022-07-29T11:34:25;27.30;1.00
15630;DHT22;7914;50.842;0.166;2022-07-29T11:47:21;27.10;1.00
15630;DHT22;7914;50.842;0.166;2022-07-29T11:49:48;27.20;1.00
15630;DHT22;7914;50.842;0.166;2022-07-29T11:52:16;26.90;1.00
15630;DHT22;7914;50.842;0.166;2022-07-29T11:54:43;26.80;1.00
15630;DHT22;7914;50.842;0.166;2022-07-29T11:57:09;26.80;1.00
15630;DHT22;7914;50.842;0.166;2022-07-29T11:59:42;26.40;1.00
15630;DHT22;7914;50.842;0.166;2022-07-29T12:02:08;26.30;1.00
15630;DHT22;7914;50.842;0.166;2022-07-29T12:04:54;26.40;1.00
15630;DHT22;7914;50.842;0.166;2022-07-29T12:07:28;26.40;1.00
15630;DHT22;7914;50.842;0.166;2022-07-29T12:09:54;26.20;1.00
15630;DHT22;7914;50.842;0.166;2022-07-29T12:12:20;26.00;1.00
15630;DHT22;7914;50.842;0.166;2022-07-29T12:14:46;26.00;1.00
15630;DHT22;7914;50.842;0.166;2022-07-29T12:17:29;26.00;1.00
15630;DHT22;7914;50.842;0.166;2022-07-29T12:19:57;26.10;1.00
15630;DHT22;7914;50.842;0.166;2022-07-29T12:22:41;26.30;1.00
15630;DHT22;7914;50.842;0.166;2022-07-29T12:25:14;26.30;1.00
15630;DHT22;7914;50.842;0.166;2022-07-29T12:27:41;26.40;1.00
15630;DHT22;7914;50.842;0.166;2022-07-29T12:30:14;26.60;1.00
15630;DHT22;7914;50.842;0.166;2022-07-29T12:32:42;26.90;1.00
15630;DHT22;7914;50.842;0.166;2022-07-29T12:35:14;27.00;1.00
15630;DHT22;7914;50.842;0.166;2022-07-29T12:37:41;27.10;1.00
15630;DHT22;7914;50.842;0.166;2022-07-29T12:40:09;27.10;1.00
15630;DHT22;7914;50.842;0.166;2022-07-29T12:42:36;26.70;1.00
15630;DHT22;7914;50.842;0.166;2022-07-29T12:45:03;26.50;1.00
15630;DHT22;7914;50.842;0.166;2022-07-29T12:47:29;26.70;1.00
15630;DHT22;7914;50.842;0.166;2022-07-29T12:50:15;26.60;1.00
15630;DHT22;7914;50.842;0.166;2022-07-29T12:52:43;26.80;1.00
15630;DHT22;7914;50.842;0.166;2022-07-29T12:55:09;27.00;1.00
15630;DHT22;7914;50.842;0.166;2022-07-29T12:57:49;27.00;1.00
15630;DHT22;7914;50.842;0.166;2022-07-29T13:00:16;26.80;1.00
15630;DHT22;7914;50.842;0.166;2022-07-29T13:02:42;26.90;1.00
15630;DHT22;7914;50.842;0.166;2022-07-29T13:05:10;27.10;1.00
15630;DHT22;7914;50.842;0.166;2022-07-29T13:07:37;27.20;1.00
15630;DHT22;7914;50.842;0.166;2022-07-29T13:10:11;27.40;1.00
15630;DHT22;7914;50.842;0.166;2022-07-29T13:12:37;27.30;1.00
15630;DHT22;7914;50.842;0.166;2022-07-29T13:15:14;27.30;1.00
15630;DHT22;7914;50.842;0.166;2022-07-29T13:17:44;27.20;1.00
15630;DHT22;7914;50.842;0.166;2022-07-29T13:20:11;27.10;1.00
15630;DHT22;7914;50.842;0.166;2022-07-29T13:22:41;27.00;1.00
15630;DHT22;7914;50.842;0.166;2022-07-29T13:25:10;27.00;1.00
15630;DHT22;7914;50.842;0.166;2022-07-29T13:27:38;26.80;1.00
15630;DHT22;7914;50.842;0.166;2022-07-29T13:30:06;26.50;1.00
15630;DHT22;7914;50.842;0.166;2022-07-29T13:32:32;26.30;1.00
15630;DHT22;7914;50.842;0.166;2022-07-29T13:35:01;26.10;1.00
15630;DHT22;7914;50.842;0.166;2022-07-29T13:37:28;26.10;1.00
15630;DHT22;7914;50.842;0.166;2022-07-29T13:41:07;25.80;1.00
15630;DHT22;7914;50.842;0.166;2022-07-29T13:43:32;25.80;1.00
15630;DHT22;7914;50.842;0.166;2022-07-29T13:45:58;25.70;1.00
15630;DHT22;7914;50.842;0.166;2022-07-29T13:48:24;25.60;1.00
15630;DHT22;7914;50.842;0.166;2022-07-29T13:50:50;25.50;1.00
15630;DHT22;7914;50.842;0.166;2022-07-29T13:53:15;25.50;1.00
15630;DHT22;7914;50.842;0.166;2022-07-29T13:55:41;25.40;1.00
15630;DHT22;7914;50.842;0.166;2022-07-29T13:58:07;25.40;1.00
15630;DHT22;7914;50.842;0.166;2022-07-29T14:00:33;25.50;1.00
15630;DHT22;7914;50.842;0.166;2022-07-29T14:02:58;25.30;1.00
15630;DHT22;7914;50.842;0.166;2022-07-29T14:05:24;25.00;1.00
15630;DHT22;7914;50.842;0.166;2022-07-29T14:07:50;24.70;1.00
15630;DHT22;7914;50.842;0.166;2022-07-29T14:10:15;24.60;1.00
15630;DHT22;7914;50.842;0.166;2022-07-29T14:12:41;24.50;1.00
15630;DHT22;7914;50.842;0.166;2022-07-29T14:15:07;24.50;1.00
15630;DHT22;7914;50.842;0.166;2022-07-29T14:17:34;24.60;1.00
15630;DHT22;7914;50.842;0.166;2022-07-29T14:20:00;24.70;1.00
15630;DHT22;7914;50.842;0.166;2022-07-29T14:22:26;24.70;1.00
15630;DHT22;7914;50.842;0.166;2022-07-29T14:24:51;24.70;1.00
15630;DHT22;7914;50.842;0.166;2022-07-29T14:27:17;24.70;1.00
15630;DHT22;7914;50.842;0.166;2022-07-29T14:29:43;24.70;1.00
15630;DHT22;7914;50.842;0.166;2022-07-29T14:32:09;24.70;1.00
15630;DHT22;7914;50.842;0.166;2022-07-29T14:34:38;24.50;1.00
15630;DHT22;7914;50.842;0.166;2022-07-29T14:37:05;24.50;1.00
15630;DHT22;7914;50.842;0.166;2022-07-29T14:39:32;24.50;1.00
15630;DHT22;7914;50.842;0.166;2022-07-29T14:41:58;24.40;1.00
15630;DHT22;7914;50.842;0.166;2022-07-29T14:44:24;24.40;1.00
15630;DHT22;7914;50.842;0.166;2022-07-29T14:46:54;24.50;1.00
15630;DHT22;7914;50.842;0.166;2022-07-29T14:49:20;24.50;1.00
15630;DHT22;7914;50.842;0.166;2022-07-29T14:51:45;24.40;1.00
15630;DHT22;7914;50.842;0.166;2022-07-29T14:54:11;24.40;1.00
15630;DHT22;7914;50.842;0.166;2022-07-29T14:56:37;24.30;1.00
15630;DHT22;7914;50.842;0.166;2022-07-29T14:59:03;24.20;1.00
15630;DHT22;7914;50.842;0.166;2022-07-29T15:01:29;24.30;1.00
15630;DHT22;7914;50.842;0.166;2022-07-29T15:04:00;24.20;1.00
15630;DHT22;7914;50.842;0.166;2022-07-29T15:06:26;24.20;1.00
15630;DHT22;7914;50.842;0.166;2022-07-29T15:08:52;24.10;1.00
15630;DHT22;7914;50.842;0.166;2022-07-29T15:11:18;24.10;1.00
15630;DHT22;7914;50.842;0.166;2022-07-29T15:13:43;24.10;1.00
15630;DHT22;7914;50.842;0.166;2022-07-29T15:16:09;24.00;1.00
15630;DHT22;7914;50.842;0.166;2022-07-29T15:18:35;24.00;1.00
15630;DHT22;7914;50.842;0.166;2022-07-29T15:21:04;24.00;1.00
15630;DHT22;7914;50.842;0.166;2022-07-29T15:23:29;24.00;1.00
15630;DHT22;7914;50.842;0.166;2022-07-29T15:25:55;24.00;1.00
15630;DHT22;7914;50.842;0.166;2022-07-29T15:28:21;24.00;1.00
15630;DHT22;7914;50.842;0.166;2022-07-29T15:30:46;24.00;1.00
15630;DHT22;7914;50.842;0.166;2022-07-29T15:33:12;23.90;1.00
15630;DHT22;7914;50.842;0.166;2022-07-29T15:35:38;23.80;1.00
15630;DHT22;7914;50.842;0.166;2022-07-29T15:38:04;23.90;1.00
15630;DHT22;7914;50.842;0.166;2022-07-29T15:40:30;23.90;1.00
15630;DHT22;7914;50.842;0.166;2022-07-29T15:42:56;23.80;1.00
15630;DHT22;7914;50.842;0.166;2022-07-29T15:45:22;23.80;1.00
15630;DHT22;7914;50.842;0.166;2022-07-29T15:47:48;23.70;1.00
15630;DHT22;7914;50.842;0.166;2022-07-29T15:50:14;23.60;1.00
15630;DHT22;7914;50.842;0.166;2022-07-29T15:52:44;23.60;1.00
15630;DHT22;7914;50.842;0.166;2022-07-29T15:55:10;23.60;1.00
15630;DHT22;7914;50.842;0.166;2022-07-29T15:57:35;23.60;1.00
15630;DHT22;7914;50.842;0.166;2022-07-29T16:00:03;23.60;1.00
15630;DHT22;7914;50.842;0.166;2022-07-29T16:02:28;23.50;1.00
15630;DHT22;7914;50.842;0.166;2022-07-29T16:04:54;23.50;1.00
15630;DHT22;7914;50.842;0.166;2022-07-29T16:07:20;23.60;1.00
15630;DHT22;7914;50.842;0.166;2022-07-29T16:09:46;23.60;1.00
15630;DHT22;7914;50.842;0.166;2022-07-29T16:12:12;23.50;1.00
15630;DHT22;7914;50.842;0.166;2022-07-29T16:14:37;23.50;1.00
15630;DHT22;7914;50.842;0.166;2022-07-29T16:17:03;23.50;1.00
15630;DHT22;7914;50.842;0.166;2022-07-29T16:19:29;23.50;1.00
15630;DHT22;7914;50.842;0.166;2022-07-29T16:21:55;23.40;1.00
15630;DHT22;7914;50.842;0.166;2022-07-29T16:24:21;23.40;1.00
15630;DHT22;7914;50.842;0.166;2022-07-29T16:26:48;23.40;1.00
15630;DHT22;7914;50.842;0.166;2022-07-29T16:29:14;23.40;1.00
15630;DHT22;7914;50.842;0.166;2022-07-29T16:31:42;23.30;1.00
15630;DHT22;7914;50.842;0.166;2022-07-29T16:34:08;23.30;1.00
15630;DHT22;7914;50.842;0.166;2022-07-29T16:36:34;23.20;1.00
15630;DHT22;7914;50.842;0.166;2022-07-29T16:38:59;23.20;1.00
15630;DHT22;7914;50.842;0.166;2022-07-29T16:41:25;23.10;1.00
15630;DHT22;7914;50.842;0.166;2022-07-29T16:43:51;23.10;1.00
15630;DHT22;7914;50.842;0.166;2022-07-29T16:46:17;23.00;1.00
15630;DHT22;7914;50.842;0.166;2022-07-29T16:48:43;23.00;1.00
15630;DHT22;7914;50.842;0.166;2022-07-29T16:51:08;23.00;1.00